createdAt,value
2018-02-14T06:40:33.031Z,0
2018-02-14T06:41:34.422Z,0
2018-02-14T06:42:55.924Z,0
2018-02-14T06:43:57.310Z,0
2018-02-14T06:45:19.895Z,0
2018-02-14T06:46:21.274Z,0
2018-02-14T06:47:22.716Z,0
2018-02-14T06:48:24.103Z,0
2018-02-14T06:49:25.487Z,0
2018-02-14T06:50:26.874Z,0
2018-02-14T06:51:28.263Z,0
2018-02-14T06:52:29.646Z,5
2018-02-14T06:53:31.029Z,5
2018-02-14T06:54:32.412Z,5
2018-02-14T06:55:33.820Z,5
2018-02-14T06:56:35.215Z,5
2018-02-14T06:57:36.608Z,5
2018-02-14T06:58:37.997Z,5
2018-02-14T06:59:39.403Z,5
2018-02-14T07:00:40.807Z,5
2018-02-14T07:01:42.192Z,5
2018-02-14T07:02:43.577Z,5
2018-02-14T07:03:44.964Z,5
2018-02-14T07:04:46.357Z,11
2018-02-14T07:05:47.761Z,11
2018-02-14T07:06:49.180Z,11
2018-02-14T07:07:50.579Z,11
2018-02-14T07:08:51.967Z,11
2018-02-14T07:09:53.352Z,11
2018-02-14T07:10:54.744Z,11
2018-02-14T07:11:56.133Z,11
2018-02-14T07:12:57.521Z,11
2018-02-14T07:13:58.904Z,11
2018-02-14T07:15:00.297Z,16
2018-02-14T07:16:01.696Z,16
2018-02-14T07:17:03.079Z,16
2018-02-14T07:18:04.469Z,16
2018-02-14T07:19:05.870Z,16
2018-02-14T07:20:07.257Z,16
2018-02-14T07:21:08.644Z,16
2018-02-14T07:22:10.034Z,16
2018-02-14T07:23:11.418Z,16
2018-02-14T07:24:12.806Z,22
2018-02-14T07:25:14.194Z,22
2018-02-14T07:26:15.582Z,22
2018-02-14T07:27:17.004Z,22
2018-02-14T07:28:18.391Z,22
2018-02-14T07:29:19.780Z,22
2018-02-14T07:30:21.166Z,22
2018-02-14T07:31:22.552Z,22
2018-02-14T07:32:24.009Z,22
2018-02-14T07:33:25.395Z,28
2018-02-14T07:34:26.802Z,28
2018-02-14T07:35:28.195Z,28
2018-02-14T07:36:29.730Z,28
2018-02-14T07:37:31.366Z,28
2018-02-14T07:38:32.758Z,28
2018-02-14T07:39:34.145Z,28
2018-02-14T07:40:35.566Z,28
2018-02-14T07:41:36.951Z,28
2018-02-14T07:42:38.360Z,28
2018-02-14T07:43:39.748Z,33
2018-02-14T07:44:41.132Z,33
2018-02-14T07:45:42.522Z,33
2018-02-14T07:46:43.907Z,33
2018-02-14T07:47:45.299Z,33
2018-02-14T07:48:46.689Z,33
2018-02-14T07:49:48.077Z,33
2018-02-14T07:50:49.463Z,33
2018-02-14T07:51:50.848Z,33
2018-02-14T07:52:52.237Z,33
2018-02-14T07:53:53.626Z,33
2018-02-14T07:54:55.014Z,39
2018-02-14T07:55:56.406Z,39
2018-02-14T07:56:57.792Z,39
2018-02-14T07:57:59.178Z,39
2018-02-14T07:59:00.565Z,39
2018-02-14T08:00:01.952Z,39
2018-02-14T08:01:03.342Z,39
2018-02-14T08:02:04.730Z,39
2018-02-14T08:03:06.120Z,39
2018-02-14T08:04:07.522Z,39
2018-02-14T08:05:08.906Z,39
2018-02-14T08:06:10.294Z,39
2018-02-14T08:07:11.680Z,45
2018-02-14T08:08:13.070Z,45
2018-02-14T08:09:14.492Z,45
2018-02-14T08:10:15.844Z,45
2018-02-14T08:11:17.239Z,45
2018-02-14T08:12:18.623Z,45
2018-02-14T08:13:20.005Z,45
2018-02-14T08:14:21.389Z,45
2018-02-14T08:15:22.771Z,45
2018-02-14T08:16:24.154Z,45
2018-02-14T08:17:25.538Z,45
2018-02-14T08:18:26.923Z,45
2018-02-14T08:19:28.310Z,50
2018-02-14T08:20:29.688Z,50
2018-02-14T08:21:31.076Z,50
2018-02-14T08:22:32.459Z,50
2018-02-14T08:23:33.853Z,50
2018-02-14T08:24:35.241Z,50
2018-02-14T08:25:36.628Z,50
2018-02-14T08:26:38.124Z,50
2018-02-14T08:27:39.525Z,50
2018-02-14T08:28:40.920Z,50
2018-02-14T08:29:42.334Z,50
2018-02-14T08:30:43.723Z,56
2018-02-14T08:31:45.107Z,56
2018-02-14T08:32:46.492Z,56
2018-02-14T08:33:47.876Z,56
2018-02-14T08:34:49.259Z,56
2018-02-14T08:35:50.644Z,56
2018-02-14T08:36:52.029Z,56
2018-02-14T08:37:53.416Z,56
2018-02-14T08:38:54.802Z,56
2018-02-14T08:39:56.185Z,56
2018-02-14T08:40:57.570Z,61
2018-02-14T08:41:58.953Z,61
2018-02-14T08:43:00.342Z,61
2018-02-14T08:44:01.726Z,61
2018-02-14T08:45:03.116Z,61
2018-02-14T08:46:04.504Z,61
2018-02-14T08:47:05.893Z,61
2018-02-14T08:48:07.279Z,61
2018-02-14T08:49:08.664Z,67
2018-02-14T08:50:10.052Z,67
2018-02-14T08:51:11.438Z,67
2018-02-14T08:52:12.825Z,67
2018-02-14T08:53:14.210Z,67
2018-02-14T08:54:15.599Z,67
2018-02-14T08:55:16.984Z,73
2018-02-14T08:56:18.369Z,73
2018-02-14T08:57:19.753Z,73
2018-02-14T08:58:21.138Z,73
2018-02-14T08:59:22.525Z,73
2018-02-14T09:00:23.915Z,78
2018-02-14T09:01:25.307Z,78
2018-02-14T09:02:26.691Z,78
2018-02-14T09:03:28.077Z,78
2018-02-14T09:04:29.487Z,84
2018-02-14T09:05:30.875Z,84
2018-02-14T09:06:32.261Z,78
2018-02-14T09:07:33.650Z,78
2018-02-14T09:08:35.040Z,84
2018-02-14T09:09:36.426Z,84
2018-02-14T09:10:37.817Z,90
2018-02-14T09:11:39.198Z,90
2018-02-14T09:12:40.582Z,90
2018-02-14T09:13:41.973Z,95
2018-02-14T09:14:43.357Z,95
2018-02-14T09:15:44.744Z,101
2018-02-14T09:16:46.237Z,101
2018-02-14T09:17:47.662Z,106
2018-02-14T09:18:49.051Z,106
2018-02-14T09:19:50.450Z,112
2018-02-14T09:20:51.839Z,112
2018-02-14T09:21:53.283Z,118
2018-02-14T09:22:54.676Z,123
2018-02-14T09:23:56.062Z,129
2018-02-14T09:24:57.451Z,129
2018-02-14T09:25:58.839Z,135
2018-02-14T09:27:00.221Z,140
2018-02-14T09:28:01.612Z,140
2018-02-14T09:29:03.000Z,146
2018-02-14T09:30:04.392Z,151
2018-02-14T09:31:05.778Z,157
2018-02-14T09:32:07.163Z,163
2018-02-14T09:33:08.548Z,163
2018-02-14T09:34:09.940Z,168
2018-02-14T09:35:11.327Z,180
2018-02-14T09:36:12.727Z,174
2018-02-14T09:37:14.118Z,180
2018-02-14T09:38:15.501Z,180
2018-02-14T09:39:16.890Z,185
2018-02-14T09:40:18.279Z,191
2018-02-14T09:41:19.672Z,191
2018-02-14T09:42:21.061Z,196
2018-02-14T09:43:22.449Z,196
2018-02-14T09:44:23.840Z,196
2018-02-14T09:45:25.226Z,202
2018-02-14T09:46:26.615Z,208
2018-02-14T09:47:28.003Z,213
2018-02-14T09:48:29.391Z,225
2018-02-14T09:49:30.782Z,225
2018-02-14T09:50:32.171Z,225
2018-02-14T09:51:33.561Z,230
2018-02-14T09:52:34.946Z,236
2018-02-14T09:53:36.334Z,236
2018-02-14T09:54:37.725Z,241
2018-02-14T09:55:39.117Z,247
2018-02-14T09:56:40.505Z,286
2018-02-14T09:57:41.904Z,376
2018-02-14T09:58:43.312Z,410
2018-02-14T09:59:44.700Z,382
2018-02-14T10:00:46.090Z,382
2018-02-14T10:01:47.479Z,393
2018-02-14T10:02:48.881Z,421
2018-02-14T10:03:50.286Z,540
2018-02-14T10:04:51.675Z,534
2018-02-14T10:05:53.066Z,450
2018-02-14T10:06:54.535Z,573
2018-02-14T10:07:55.944Z,939
2018-02-14T10:08:57.336Z,1248
2018-02-14T10:09:58.726Z,1271
2018-02-14T10:11:00.127Z,1063
2018-02-14T10:12:01.526Z,1113
2018-02-14T10:13:02.918Z,1170
2018-02-14T10:14:04.308Z,1136
2018-02-14T10:15:05.701Z,950
2018-02-14T10:16:07.112Z,950
2018-02-14T10:17:08.509Z,1023
2018-02-14T10:18:09.904Z,1018
2018-02-14T10:19:11.301Z,1175
2018-02-14T10:20:12.700Z,1271
2018-02-14T10:21:14.098Z,1366
2018-02-14T10:22:15.496Z,1440
2018-02-14T10:23:16.893Z,1456
2018-02-14T10:24:18.291Z,1485
2018-02-14T10:25:19.690Z,1524
2018-02-14T10:26:21.091Z,1861
2018-02-14T10:27:22.489Z,2390
2018-02-14T10:28:23.902Z,2829
2018-02-14T10:29:25.288Z,2992
2018-02-14T10:30:26.688Z,2941
2018-02-14T10:31:28.091Z,2896
2018-02-14T10:32:29.493Z,2643
2018-02-14T10:33:30.895Z,2508
2018-02-14T10:34:32.303Z,2446
2018-02-14T10:35:33.704Z,2446
2018-02-14T10:36:35.113Z,2413
2018-02-14T10:37:36.517Z,2340
2018-02-14T10:38:37.921Z,2238
2018-02-14T10:39:39.325Z,2148
2018-02-14T10:40:40.726Z,2075
2018-02-14T10:41:42.124Z,2047
2018-02-14T10:42:43.522Z,2019
2018-02-14T10:43:44.925Z,1980
2018-02-14T10:44:46.327Z,2008
2018-02-14T10:45:47.731Z,2041
2018-02-14T10:46:49.131Z,2064
2018-02-14T10:47:50.533Z,2081
2018-02-14T10:48:51.937Z,2075
2018-02-14T10:49:53.339Z,2109
2018-02-14T10:50:54.744Z,2176
2018-02-14T10:51:56.141Z,2278
2018-02-14T10:52:57.543Z,2266
2018-02-14T10:53:58.947Z,2250
2018-02-14T10:55:00.382Z,2379
2018-02-14T10:56:01.830Z,2413
2018-02-14T10:57:03.232Z,2486
2018-02-14T10:58:04.632Z,2491
2018-02-14T10:59:06.034Z,2441
2018-02-14T11:00:07.436Z,2446
2018-02-14T11:01:08.889Z,2452
2018-02-14T11:02:10.253Z,2424
2018-02-14T11:03:11.658Z,2407
2018-02-14T11:04:13.063Z,2385
2018-02-14T11:05:14.530Z,2340
2018-02-14T11:06:15.944Z,2328
2018-02-14T11:07:17.377Z,2368
2018-02-14T11:08:18.814Z,2368
2018-02-14T11:09:20.221Z,2373
2018-02-14T11:10:21.633Z,2345
2018-02-14T11:11:23.076Z,2362
2018-02-14T11:12:24.482Z,2266
2018-02-14T11:13:25.897Z,2171
2018-02-14T11:14:27.321Z,2030
2018-02-14T11:15:28.730Z,2030
2018-02-14T11:16:30.169Z,2092
2018-02-14T11:17:31.640Z,2081
2018-02-14T11:18:33.041Z,2013
2018-02-14T11:19:34.443Z,1867
2018-02-14T11:20:35.850Z,1749
2018-02-14T11:21:37.255Z,1698
2018-02-14T11:22:38.660Z,1805
2018-02-14T11:23:40.067Z,1845
2018-02-14T11:24:41.486Z,1811
2018-02-14T11:25:42.925Z,1698
2018-02-14T11:26:44.333Z,1642
2018-02-14T11:27:45.737Z,1665
2018-02-14T11:28:47.142Z,1726
2018-02-14T11:29:48.552Z,1321
2018-02-14T11:30:49.956Z,838
2018-02-14T11:31:51.359Z,686
2018-02-14T11:32:52.760Z,528
2018-02-14T11:33:54.170Z,444
2018-02-14T11:34:55.570Z,444
2018-02-14T11:35:56.968Z,438
2018-02-14T11:36:58.372Z,433
2018-02-14T11:37:59.956Z,421
2018-02-14T11:39:01.225Z,410
2018-02-14T11:40:02.636Z,410
2018-02-14T11:41:04.037Z,416
2018-02-14T11:42:05.531Z,438
2018-02-14T11:43:07.337Z,613
2018-02-14T11:44:08.770Z,950
2018-02-14T11:45:10.174Z,1153
2018-02-14T11:46:11.574Z,1299
2018-02-14T11:47:12.972Z,1327
2018-02-14T11:48:14.371Z,1023
2018-02-14T11:49:15.868Z,669
2018-02-14T11:50:17.297Z,641
2018-02-14T11:51:18.708Z,500
2018-02-14T11:52:20.103Z,382
2018-02-14T11:53:21.503Z,365
2018-02-14T11:54:22.898Z,360
2018-02-14T11:55:24.299Z,348
2018-02-14T11:56:25.696Z,337
2018-02-14T11:57:27.105Z,331
2018-02-14T11:58:28.503Z,331
2018-02-14T11:59:29.902Z,331
2018-02-14T12:00:31.356Z,331
2018-02-14T12:01:32.752Z,326
2018-02-14T12:02:34.152Z,331
2018-02-14T12:03:35.549Z,331
2018-02-14T12:04:36.947Z,354
2018-02-14T12:05:38.347Z,376
2018-02-14T12:06:39.744Z,337
2018-02-14T12:07:41.147Z,343
2018-02-14T12:08:42.535Z,326
2018-02-14T12:09:43.933Z,326
2018-02-14T12:10:45.332Z,320
2018-02-14T12:11:46.729Z,320
2018-02-14T12:12:48.128Z,315
2018-02-14T12:13:49.533Z,315
2018-02-14T12:14:50.929Z,309
2018-02-14T12:15:52.324Z,309
2018-02-14T12:16:53.719Z,309
2018-02-14T12:17:55.116Z,309
2018-02-14T12:18:56.511Z,309
2018-02-14T12:19:57.912Z,309
2018-02-14T12:20:59.306Z,303
2018-02-14T12:22:00.705Z,303
2018-02-14T12:23:02.099Z,303
2018-02-14T12:24:03.492Z,303
2018-02-14T12:25:04.887Z,303
2018-02-14T12:26:06.286Z,298
2018-02-14T12:27:07.684Z,298
2018-02-14T12:28:09.084Z,298
2018-02-14T12:29:10.540Z,298
2018-02-14T12:30:11.965Z,298
2018-02-14T12:31:13.358Z,298
2018-02-14T12:32:14.755Z,292
2018-02-14T12:33:16.153Z,292
2018-02-14T12:34:17.549Z,292
2018-02-14T12:35:18.947Z,292
2018-02-14T12:36:20.345Z,292
2018-02-14T12:37:21.740Z,286
2018-02-14T12:38:23.136Z,286
2018-02-14T12:39:24.535Z,286
2018-02-14T12:40:25.922Z,286
2018-02-14T12:41:27.320Z,281
2018-02-14T12:42:28.721Z,281
2018-02-14T12:43:30.117Z,281
2018-02-14T12:44:31.513Z,281
2018-02-14T12:45:32.908Z,281
2018-02-14T12:46:34.301Z,281
2018-02-14T12:47:35.700Z,275
2018-02-14T12:48:37.098Z,275
2018-02-14T12:49:38.494Z,275
2018-02-14T12:50:39.891Z,275
2018-02-14T12:51:41.285Z,275
2018-02-14T12:52:42.679Z,270
2018-02-14T12:53:44.076Z,270
2018-02-14T12:54:45.474Z,270
2018-02-14T12:55:46.869Z,270
2018-02-14T12:56:48.268Z,270
2018-02-14T12:57:49.666Z,270
2018-02-14T12:58:51.063Z,264
2018-02-14T12:59:52.469Z,270
2018-02-14T13:00:53.859Z,264
2018-02-14T13:01:55.255Z,270
2018-02-14T13:02:56.654Z,264
2018-02-14T13:03:58.048Z,264
2018-02-14T13:04:59.449Z,264
2018-02-14T13:06:00.847Z,264
2018-02-14T13:07:02.240Z,264
2018-02-14T13:08:03.636Z,264
2018-02-14T13:09:05.030Z,258
2018-02-14T13:10:06.434Z,258
2018-02-14T13:11:07.830Z,258
2018-02-14T13:12:09.227Z,258
2018-02-14T13:13:10.620Z,258
2018-02-14T13:14:12.030Z,258
2018-02-14T13:15:13.426Z,253
2018-02-14T13:16:14.823Z,253
2018-02-14T13:17:16.293Z,253
2018-02-14T13:18:17.725Z,253
2018-02-14T13:19:19.123Z,253
2018-02-14T13:20:20.520Z,253
2018-02-14T13:21:21.912Z,253
2018-02-14T13:22:23.309Z,247
2018-02-14T13:23:24.702Z,247
2018-02-14T13:24:26.097Z,247
2018-02-14T13:25:27.495Z,253
2018-02-14T13:26:28.893Z,241
2018-02-14T13:27:30.285Z,247
2018-02-14T13:28:31.676Z,241
2018-02-14T13:29:33.075Z,241
2018-02-14T13:30:34.474Z,241
2018-02-14T13:31:35.872Z,241
2018-02-14T13:32:37.269Z,236
2018-02-14T13:33:38.667Z,241
2018-02-14T13:34:40.060Z,236
2018-02-14T13:35:41.461Z,241
2018-02-14T13:36:42.851Z,230
2018-02-14T13:37:44.246Z,230
2018-02-14T13:38:45.640Z,230
2018-02-14T13:39:48.041Z,230
2018-02-14T13:40:49.459Z,236
2018-02-14T13:41:50.825Z,230
2018-02-14T13:42:52.218Z,225
2018-02-14T13:43:53.616Z,225
2018-02-14T13:44:55.012Z,225
2018-02-14T13:45:56.410Z,225
2018-02-14T13:46:57.977Z,219
2018-02-14T13:47:59.564Z,219
2018-02-14T13:49:01.297Z,219
2018-02-14T13:50:02.691Z,219
2018-02-14T13:51:04.087Z,219
2018-02-14T13:52:05.482Z,219
2018-02-14T13:53:06.879Z,213
2018-02-14T13:54:08.297Z,213
2018-02-14T13:55:09.693Z,213
2018-02-14T13:56:11.099Z,213
2018-02-14T13:57:12.494Z,213
2018-02-14T13:58:13.893Z,213
2018-02-14T13:59:15.289Z,213
2018-02-14T14:00:17.164Z,191
2018-02-14T14:01:18.516Z,208
2018-02-14T14:02:19.956Z,180
2018-02-14T14:03:21.353Z,191
2018-02-14T14:04:22.745Z,196
2018-02-14T14:05:24.140Z,208
2018-02-14T14:06:25.919Z,208
2018-02-14T14:07:27.294Z,208
2018-02-14T14:08:28.686Z,208
2018-02-14T14:09:30.551Z,208
2018-02-14T14:10:31.945Z,208
2018-02-14T14:11:33.342Z,208
2018-02-14T14:12:34.767Z,208
2018-02-14T14:13:36.164Z,208
2018-02-14T14:14:37.557Z,202
2018-02-14T14:15:38.954Z,202
2018-02-14T14:16:41.274Z,196
2018-02-14T14:17:42.674Z,196
2018-02-14T14:18:44.069Z,196
2018-02-14T14:19:46.288Z,196
2018-02-14T14:20:47.682Z,196
2018-02-14T14:21:49.079Z,196
2018-02-14T14:22:50.481Z,191
2018-02-14T14:23:51.878Z,185
2018-02-14T14:24:53.271Z,185
2018-02-14T14:25:54.664Z,180
2018-02-14T14:26:56.061Z,174
2018-02-14T14:27:57.454Z,180
2018-02-14T14:29:00.815Z,180
2018-02-14T14:30:02.331Z,180
2018-02-14T14:31:03.732Z,180
2018-02-14T14:32:05.219Z,174
2018-02-14T14:33:06.536Z,174
2018-02-14T14:34:07.934Z,174
2018-02-14T14:35:09.327Z,174
2018-02-14T14:36:10.723Z,168
2018-02-14T14:37:12.605Z,163
2018-02-14T14:38:14.016Z,163
2018-02-14T14:39:15.409Z,163
2018-02-14T14:40:17.387Z,157
2018-02-14T14:41:18.865Z,163
2018-02-14T14:42:20.324Z,163
2018-02-14T14:43:22.514Z,151
2018-02-14T14:44:23.775Z,163
2018-02-14T14:45:25.171Z,146
2018-02-14T14:46:26.565Z,151
2018-02-14T14:47:28.804Z,146
2018-02-14T14:48:30.198Z,151
2018-02-14T14:49:31.596Z,140
2018-02-14T14:50:33.629Z,146
2018-02-14T14:51:35.023Z,146
2018-02-14T14:52:36.417Z,140
2018-02-14T14:53:37.813Z,140
2018-02-14T14:54:39.205Z,140
2018-02-14T14:55:40.598Z,140
2018-02-14T14:56:41.993Z,135
2018-02-14T14:57:43.386Z,123
2018-02-14T14:58:44.782Z,123
2018-02-14T14:59:46.175Z,118
2018-02-14T15:00:47.568Z,112
2018-02-14T15:01:49.075Z,106
2018-02-14T15:02:50.467Z,106
2018-02-14T15:03:51.860Z,106
2018-02-14T15:04:53.276Z,101
2018-02-14T15:05:54.668Z,106
2018-02-14T15:06:56.062Z,84
2018-02-14T15:07:57.453Z,78
2018-02-14T15:08:59.607Z,84
2018-02-14T15:10:01.000Z,78
2018-02-14T15:11:02.404Z,78
2018-02-14T15:12:03.849Z,67
2018-02-14T15:13:06.080Z,61
2018-02-14T15:14:07.366Z,56
2018-02-14T15:15:08.755Z,56
2018-02-14T15:16:10.155Z,56
2018-02-14T15:17:11.537Z,56
2018-02-14T15:18:12.932Z,56
2018-02-14T15:19:14.326Z,56
2018-02-14T15:20:15.718Z,56
2018-02-14T15:21:17.115Z,56
2018-02-14T15:22:18.520Z,50
2018-02-14T15:23:19.908Z,45
2018-02-14T15:24:21.402Z,50
2018-02-14T15:25:22.795Z,56
2018-02-14T15:26:24.252Z,56
2018-02-14T15:27:25.649Z,56
2018-02-14T15:28:27.198Z,56
2018-02-14T15:29:28.629Z,56
2018-02-14T15:30:30.017Z,56
2018-02-14T15:31:31.403Z,56
2018-02-14T15:32:32.790Z,56
2018-02-14T15:33:34.181Z,56
2018-02-14T15:34:35.573Z,56
2018-02-14T15:35:36.964Z,56
2018-02-14T15:36:38.351Z,56
2018-02-14T15:37:39.748Z,50
2018-02-14T15:38:41.189Z,50
2018-02-14T15:39:42.643Z,50
2018-02-14T15:40:44.037Z,45
2018-02-14T15:41:45.488Z,45
2018-02-14T15:42:46.904Z,50
2018-02-14T15:43:48.294Z,56
2018-02-14T15:44:49.680Z,56
2018-02-14T15:45:51.072Z,56
2018-02-14T15:46:52.457Z,56
2018-02-14T15:47:53.871Z,50
2018-02-14T15:48:55.262Z,50
2018-02-14T15:49:56.693Z,50
2018-02-14T15:50:58.080Z,45
2018-02-14T15:51:59.515Z,45
2018-02-14T15:53:01.015Z,45
2018-02-14T15:54:02.407Z,45
2018-02-14T15:55:03.797Z,45
2018-02-14T15:56:05.192Z,39
2018-02-14T15:57:06.690Z,39
2018-02-14T15:58:08.042Z,39
2018-02-14T15:59:09.426Z,39
2018-02-14T16:00:10.817Z,39
2018-02-14T16:01:12.205Z,39
2018-02-14T16:02:13.598Z,45
2018-02-14T16:03:14.988Z,39
2018-02-14T16:04:16.378Z,45
2018-02-14T16:05:17.767Z,50
2018-02-14T16:06:19.175Z,45
2018-02-14T16:07:20.587Z,45
2018-02-14T16:08:21.978Z,45
2018-02-14T16:09:23.370Z,45
2018-02-14T16:10:24.810Z,50
2018-02-14T16:11:26.263Z,45
2018-02-14T16:12:27.737Z,45
2018-02-14T16:13:29.152Z,45
2018-02-14T16:14:30.545Z,45
2018-02-14T16:15:31.956Z,39
2018-02-14T16:16:33.395Z,39
2018-02-14T16:17:34.787Z,39
2018-02-14T16:18:36.175Z,33
2018-02-14T16:19:37.564Z,28
2018-02-14T16:20:38.959Z,28
2018-02-14T16:21:40.345Z,22
2018-02-14T16:22:41.731Z,22
2018-02-14T16:23:43.126Z,22
2018-02-14T16:24:44.520Z,22
2018-02-14T16:25:45.924Z,16
2018-02-14T16:26:47.317Z,16
2018-02-14T16:27:48.704Z,16
2018-02-14T16:28:50.094Z,16
2018-02-14T16:29:51.483Z,16
2018-02-14T16:30:52.921Z,16
2018-02-14T16:31:54.340Z,11
2018-02-14T16:32:55.734Z,11
2018-02-14T16:33:57.137Z,11
2018-02-14T16:34:58.511Z,11
2018-02-14T16:35:59.895Z,11
2018-02-14T16:37:01.281Z,5
2018-02-14T16:38:02.766Z,5
2018-02-14T16:39:04.155Z,5
2018-02-14T16:40:05.542Z,5
2018-02-14T16:41:06.931Z,5
2018-02-14T16:42:08.317Z,5
2018-02-14T16:43:09.703Z,5
2018-02-14T16:44:11.099Z,5
2018-02-14T16:45:12.483Z,5
2018-02-14T16:46:13.874Z,0
2018-02-14T16:47:15.273Z,0
2018-02-14T16:48:16.680Z,0
2018-02-14T16:49:18.041Z,0
2018-02-14T16:50:19.433Z,0
2018-02-14T16:51:20.819Z,0
2018-02-14T16:52:22.206Z,0
2018-02-14T16:53:23.594Z,0
2018-02-14T16:54:24.981Z,0
2018-02-14T16:55:26.369Z,0
2018-02-14T16:56:27.756Z,0
2018-02-14T16:57:29.141Z,0
2018-02-14T16:58:30.530Z,0
2018-02-14T16:59:31.919Z,0
2018-02-14T17:00:33.396Z,0
2018-02-14T17:01:34.844Z,0
2018-02-14T17:02:36.227Z,0
2018-02-14T17:03:37.618Z,0
2018-02-14T17:04:39.002Z,0
2018-02-14T17:05:40.411Z,0
2018-02-14T17:06:41.768Z,0
2018-02-14T17:07:43.157Z,0
2018-02-14T17:08:44.572Z,0
2018-02-14T17:09:45.960Z,0
2018-02-14T17:10:47.347Z,0
2018-02-14T17:11:48.730Z,0
2018-02-14T17:12:50.276Z,0
2018-02-14T17:13:51.662Z,0
2018-02-14T17:14:53.047Z,0
2018-02-14T17:15:54.436Z,0
2018-02-14T17:16:55.819Z,0
2018-02-14T17:17:57.502Z,0
2018-02-14T17:18:58.873Z,0
2018-02-14T17:20:00.523Z,0
2018-02-14T17:21:01.910Z,0
2018-02-14T17:22:03.299Z,0
2018-02-14T17:23:05.408Z,0
2018-02-14T17:24:06.792Z,0
2018-02-14T17:25:08.177Z,0
2018-02-14T17:26:09.589Z,0
2018-02-14T17:27:10.975Z,0
2018-02-14T17:28:12.359Z,0
2018-02-14T17:29:13.742Z,0
2018-02-14T17:30:15.131Z,0
2018-02-14T17:31:16.515Z,0
2018-02-14T17:32:17.898Z,0
2018-02-14T17:33:19.282Z,0
2018-02-14T17:34:20.666Z,0
2018-02-14T17:35:22.110Z,0
2018-02-14T17:36:23.560Z,0
2018-02-14T17:37:24.944Z,0
2018-02-14T17:38:26.348Z,0
2018-02-14T17:39:27.736Z,0
2018-02-14T17:40:29.120Z,0
2018-02-14T17:41:30.503Z,0
2018-02-14T17:42:31.889Z,0
2018-02-14T17:43:33.509Z,0
2018-02-14T17:44:35.105Z,0
2018-02-14T17:45:36.493Z,0
2018-02-14T17:46:37.975Z,0
2018-02-14T17:47:39.383Z,0
2018-02-14T17:48:40.764Z,0
2018-02-14T17:49:43.323Z,0
2018-02-14T17:50:44.852Z,0
2018-02-14T17:51:46.229Z,0
2018-02-14T17:52:47.612Z,0
2018-02-14T17:53:48.996Z,0
2018-02-14T17:54:50.377Z,0
2018-02-14T17:55:51.774Z,0
2018-02-14T17:56:53.164Z,0
2018-02-14T17:57:54.574Z,0
2018-02-14T17:59:04.120Z,0
2018-02-14T18:00:05.244Z,0
2018-02-14T18:01:06.636Z,0
2018-02-14T18:02:08.091Z,0
2018-02-14T18:03:09.467Z,0
2018-02-14T18:04:10.878Z,0
2018-02-14T18:05:12.306Z,0
2018-02-14T18:06:13.694Z,0
2018-02-14T18:07:15.083Z,0
2018-02-14T18:08:16.552Z,0
2018-02-14T18:09:18.093Z,0
2018-02-14T18:10:20.724Z,0
2018-02-14T18:11:22.152Z,0
2018-02-14T18:12:23.683Z,0
2018-02-14T18:13:25.070Z,0
2018-02-14T18:14:26.553Z,0
2018-02-14T18:15:27.936Z,0
2018-02-14T18:16:29.423Z,0
2018-02-14T18:17:30.771Z,0
2018-02-14T18:18:32.216Z,0
2018-02-14T18:19:33.597Z,0
2018-02-14T18:20:34.985Z,0
2018-02-14T18:21:36.648Z,0
2018-02-14T18:22:38.029Z,0
2018-02-14T18:23:39.411Z,0
2018-02-14T18:24:40.919Z,0
2018-02-14T18:25:42.303Z,0
2018-02-14T18:26:43.690Z,0
2018-02-14T18:27:45.074Z,0
2018-02-14T18:28:46.459Z,0
2018-02-14T18:29:47.846Z,0
2018-02-14T18:30:49.228Z,0
2018-02-14T18:31:50.983Z,0
2018-02-14T18:32:52.638Z,0
2018-02-14T18:33:54.299Z,0
2018-02-14T18:34:55.812Z,0
2018-02-14T18:35:57.182Z,0
2018-02-14T18:36:58.596Z,0
2018-02-14T18:37:59.976Z,0
2018-02-14T18:39:01.357Z,0
2018-02-14T18:40:02.744Z,0
2018-02-14T18:41:04.132Z,0
2018-02-14T18:42:05.517Z,0
2018-02-14T18:43:06.901Z,0
2018-02-14T18:44:08.284Z,0
2018-02-14T18:45:09.668Z,0
2018-02-14T18:46:11.072Z,0
2018-02-14T18:47:12.686Z,0
2018-02-14T18:48:14.119Z,0
2018-02-14T18:49:15.518Z,0
2018-02-14T18:50:16.932Z,0
2018-02-14T18:51:18.311Z,0
2018-02-14T18:52:19.702Z,0
2018-02-14T18:53:21.083Z,0
2018-02-14T18:54:22.565Z,0
2018-02-14T18:55:24.022Z,0
2018-02-14T18:56:25.409Z,0
2018-02-14T18:57:26.788Z,0
2018-02-14T18:58:28.194Z,0
2018-02-14T18:59:29.575Z,0
2018-02-14T19:00:30.961Z,0
2018-02-14T19:01:32.672Z,0
2018-02-14T19:02:34.058Z,0
2018-02-14T19:03:35.513Z,0
2018-02-14T19:04:37.243Z,0
2018-02-14T19:05:38.626Z,0
2018-02-14T19:06:40.011Z,0
2018-02-14T19:07:41.444Z,0
2018-02-14T19:08:42.843Z,0
2018-02-14T19:09:44.338Z,0
2018-02-14T19:10:45.721Z,0
2018-02-14T19:11:47.105Z,0
2018-02-14T19:12:48.528Z,0
2018-02-14T19:13:50.181Z,0
2018-02-14T19:14:51.569Z,0
2018-02-14T19:15:53.067Z,0
2018-02-14T19:16:54.431Z,0
2018-02-14T19:17:55.818Z,0
2018-02-14T19:18:57.202Z,0
2018-02-14T19:19:58.584Z,0
2018-02-14T19:21:00.147Z,0
2018-02-14T19:22:01.529Z,0
2018-02-14T19:23:03.152Z,0
2018-02-14T19:24:04.723Z,0
2018-02-14T19:25:06.104Z,0
2018-02-14T19:26:07.489Z,0
2018-02-14T19:27:08.872Z,0
2018-02-14T19:28:10.259Z,0
2018-02-14T19:29:11.641Z,0
2018-02-14T19:30:13.098Z,0
2018-02-14T19:31:14.479Z,0
2018-02-14T19:32:15.864Z,0
2018-02-14T19:33:17.248Z,0
2018-02-14T19:34:18.719Z,0
2018-02-14T19:35:20.180Z,0
2018-02-14T19:36:21.569Z,0
2018-02-14T19:37:22.998Z,0
2018-02-14T19:38:24.351Z,0
2018-02-14T19:39:25.740Z,0
2018-02-14T19:40:27.191Z,0
2018-02-14T19:41:28.637Z,0
2018-02-14T19:42:30.056Z,0
2018-02-14T19:43:31.524Z,0
2018-02-14T19:44:33.070Z,0
2018-02-14T19:45:34.468Z,0
2018-02-14T19:46:35.854Z,0
2018-02-14T19:47:37.236Z,0
2018-02-14T19:48:38.617Z,0
2018-02-14T19:49:40.014Z,0
2018-02-14T19:50:41.517Z,0
2018-02-14T19:51:43.023Z,0
2018-02-14T19:52:44.648Z,0
2018-02-14T19:53:46.106Z,0
2018-02-14T19:54:47.526Z,0
2018-02-14T19:55:48.892Z,0
2018-02-14T19:56:50.275Z,0
2018-02-14T19:57:51.662Z,0
2018-02-14T19:58:53.042Z,0
2018-02-14T19:59:54.429Z,0
2018-02-14T20:00:56.112Z,0
2018-02-14T20:01:57.506Z,0
2018-02-14T20:02:58.891Z,0
2018-02-14T20:04:00.272Z,0
2018-02-14T20:05:01.675Z,0
2018-02-14T20:06:03.059Z,0
2018-02-14T20:07:04.689Z,0
2018-02-14T20:08:06.080Z,0
2018-02-14T20:09:07.466Z,0
2018-02-14T20:10:08.856Z,0
2018-02-14T20:11:10.343Z,0
2018-02-14T20:12:11.818Z,0
2018-02-14T20:13:13.199Z,0
2018-02-14T20:14:14.620Z,0
2018-02-14T20:15:16.111Z,0
2018-02-14T20:16:17.498Z,0
2018-02-14T20:17:18.880Z,0
2018-02-14T20:18:20.604Z,0
2018-02-14T20:19:21.984Z,0
2018-02-14T20:20:23.578Z,0
2018-02-14T20:21:24.969Z,0
2018-02-14T20:22:26.351Z,0
2018-02-14T20:23:27.728Z,0
2018-02-14T20:24:29.107Z,0
2018-02-14T20:25:30.571Z,0
2018-02-14T20:26:32.916Z,0
2018-02-14T20:27:34.730Z,0
2018-02-14T20:28:36.143Z,0
2018-02-14T20:29:37.530Z,0
2018-02-14T20:30:38.910Z,0
2018-02-14T20:31:40.296Z,0
2018-02-14T20:32:41.679Z,0
2018-02-14T20:33:43.056Z,0
2018-02-14T20:34:44.608Z,0
2018-02-14T20:35:46.071Z,0
2018-02-14T20:36:47.770Z,0
2018-02-14T20:37:49.159Z,0
2018-02-14T20:38:50.544Z,0
2018-02-14T20:39:51.928Z,0
2018-02-14T20:40:53.475Z,0
2018-02-14T20:41:54.831Z,0
2018-02-14T20:42:56.448Z,0
2018-02-14T20:43:57.833Z,0
2018-02-14T20:44:59.251Z,0
2018-02-14T20:46:00.716Z,0
2018-02-14T20:47:02.099Z,0
2018-02-14T20:48:03.517Z,0
2018-02-14T20:49:04.919Z,0
2018-02-14T20:50:06.389Z,0
2018-02-14T20:51:07.785Z,0
2018-02-14T20:52:09.187Z,0
2018-02-14T20:53:10.570Z,0
2018-02-14T20:54:11.952Z,0
2018-02-14T20:55:13.336Z,0
2018-02-14T20:56:14.961Z,0
2018-02-14T20:57:16.684Z,0
2018-02-14T20:58:18.084Z,0
2018-02-14T20:59:19.472Z,0
2018-02-14T21:00:20.919Z,0
2018-02-14T21:01:22.300Z,0
2018-02-14T21:02:23.683Z,0
2018-02-14T21:03:25.065Z,0
2018-02-14T21:04:26.447Z,0
2018-02-14T21:05:27.833Z,0
2018-02-14T21:06:29.234Z,0
2018-02-14T21:07:30.800Z,0
2018-02-14T21:08:32.132Z,0
2018-02-14T21:09:33.519Z,0
2018-02-14T21:10:34.903Z,0
2018-02-14T21:11:36.723Z,0